sensor_id;sensor_type;location;lat;lon;timestamp;P1;durP1;ratioP1;P2;durP2;ratioP2
9094;SDS011;4583;49.796;9.902;2023-01-29T12:27:30;7.17;;;5.50;;
9094;SDS011;4583;49.796;9.902;2023-01-29T12:37:54;6.80;;;5.23;;
9094;SDS011;4583;49.796;9.902;2023-01-29T12:48:09;8.43;;;5.83;;
9094;SDS011;4583;49.796;9.902;2023-01-29T13:08:58;7.33;;;5.37;;
9094;SDS011;4583;49.796;9.902;2023-01-29T13:19:05;7.07;;;5.07;;
9094;SDS011;4583;49.796;9.902;2023-01-29T13:29:22;7.50;;;5.00;;
9094;SDS011;4583;49.796;9.902;2023-01-29T13:39:26;7.57;;;5.10;;
9094;SDS011;4583;49.796;9.902;2023-01-29T13:49:45;8.90;;;5.67;;
9094;SDS011;4583;49.796;9.902;2023-01-29T13:59:56;7.67;;;5.40;;
9094;SDS011;4583;49.796;9.902;2023-01-29T14:10:41;6.30;;;5.20;;
9094;SDS011;4583;49.796;9.902;2023-01-29T14:20:34;8.03;;;5.73;;
9094;SDS011;4583;49.796;9.902;2023-01-29T14:30:47;7.80;;;5.50;;
9094;SDS011;4583;49.796;9.902;2023-01-29T14:40:49;7.50;;;5.63;;
9094;SDS011;4583;49.796;9.902;2023-01-29T14:50:51;37.20;;;22.03;;
9094;SDS011;4583;49.796;9.902;2023-01-29T15:00:59;7.30;;;5.50;;
9094;SDS011;4583;49.796;9.902;2023-01-29T15:11:03;10.23;;;6.57;;
9094;SDS011;4583;49.796;9.902;2023-01-29T15:21:28;8.03;;;5.77;;
9094;SDS011;4583;49.796;9.902;2023-01-29T15:31:30;9.27;;;6.53;;
9094;SDS011;4583;49.796;9.902;2023-01-29T15:41:32;7.87;;;6.17;;
9094;SDS011;4583;49.796;9.902;2023-01-29T15:51:34;9.70;;;6.37;;
9094;SDS011;4583;49.796;9.902;2023-01-29T16:01:36;8.43;;;6.10;;
9094;SDS011;4583;49.796;9.902;2023-01-29T16:11:38;10.40;;;6.57;;
9094;SDS011;4583;49.796;9.902;2023-01-29T16:21:40;13.37;;;6.63;;
9094;SDS011;4583;49.796;9.902;2023-01-29T16:31:46;11.10;;;7.33;;
9094;SDS011;4583;49.796;9.902;2023-01-29T16:52:27;12.97;;;8.30;;
9094;SDS011;4583;49.796;9.902;2023-01-29T17:02:32;13.13;;;8.27;;
9094;SDS011;4583;49.796;9.902;2023-01-29T17:12:38;12.03;;;8.27;;
9094;SDS011;4583;49.796;9.902;2023-01-29T17:22:40;12.87;;;8.00;;
9094;SDS011;4583;49.796;9.902;2023-01-29T17:32:42;12.47;;;8.33;;
9094;SDS011;4583;49.796;9.902;2023-01-29T17:42:47;14.07;;;8.70;;
9094;SDS011;4583;49.796;9.902;2023-01-29T17:52:49;14.07;;;8.70;;
9094;SDS011;4583;49.796;9.902;2023-01-29T18:02:51;15.20;;;9.47;;
9094;SDS011;4583;49.796;9.902;2023-01-29T18:12:54;14.53;;;8.77;;
9094;SDS011;4583;49.796;9.902;2023-01-29T18:22:55;18.57;;;10.03;;
9094;SDS011;4583;49.796;9.902;2023-01-29T18:32:58;24.03;;;13.80;;
9094;SDS011;4583;49.796;9.902;2023-01-29T18:42:59;23.03;;;13.90;;
9094;SDS011;4583;49.796;9.902;2023-01-29T18:53:01;28.23;;;15.23;;
9094;SDS011;4583;49.796;9.902;2023-01-29T19:03:04;24.03;;;15.17;;
9094;SDS011;4583;49.796;9.902;2023-01-29T19:13:06;26.43;;;14.27;;
9094;SDS011;4583;49.796;9.902;2023-01-29T19:23:08;24.50;;;13.37;;
9094;SDS011;4583;49.796;9.902;2023-01-29T19:33:10;20.93;;;12.30;;
9094;SDS011;4583;49.796;9.902;2023-01-29T19:43:12;32.10;;;17.53;;
9094;SDS011;4583;49.796;9.902;2023-01-29T19:53:20;31.13;;;17.30;;
9094;SDS011;4583;49.796;9.902;2023-01-29T20:03:23;29.33;;;17.23;;
9094;SDS011;4583;49.796;9.902;2023-01-29T20:13:25;27.40;;;16.30;;
9094;SDS011;4583;49.796;9.902;2023-01-29T20:23:28;24.47;;;14.83;;
9094;SDS011;4583;49.796;9.902;2023-01-29T20:33:38;32.20;;;18.77;;
9094;SDS011;4583;49.796;9.902;2023-01-29T20:43:40;25.47;;;14.00;;
9094;SDS011;4583;49.796;9.902;2023-01-29T20:53:43;21.90;;;12.80;;
9094;SDS011;4583;49.796;9.902;2023-01-29T21:03:46;32.80;;;18.53;;
9094;SDS011;4583;49.796;9.902;2023-01-29T21:13:49;32.90;;;18.83;;
9094;SDS011;4583;49.796;9.902;2023-01-29T21:23:54;28.77;;;15.83;;
9094;SDS011;4583;49.796;9.902;2023-01-29T21:33:56;27.23;;;15.60;;
9094;SDS011;4583;49.796;9.902;2023-01-29T21:43:58;29.17;;;16.43;;
9094;SDS011;4583;49.796;9.902;2023-01-29T22:02:13;29.50;;;16.67;;
9094;SDS011;4583;49.796;9.902;2023-01-29T22:12:15;27.87;;;15.97;;
9094;SDS011;4583;49.796;9.902;2023-01-29T22:22:17;21.53;;;12.50;;
9094;SDS011;4583;49.796;9.902;2023-01-29T22:32:19;20.57;;;11.63;;
9094;SDS011;4583;49.796;9.902;2023-01-29T22:42:22;17.40;;;10.70;;
9094;SDS011;4583;49.796;9.902;2023-01-29T22:52:24;17.87;;;10.63;;
9094;SDS011;4583;49.796;9.902;2023-01-29T23:02:28;15.77;;;10.30;;
9094;SDS011;4583;49.796;9.902;2023-01-29T23:12:29;16.90;;;10.50;;
9094;SDS011;4583;49.796;9.902;2023-01-29T23:22:31;18.37;;;11.10;;
9094;SDS011;4583;49.796;9.902;2023-01-29T23:32:33;18.73;;;11.30;;
9094;SDS011;4583;49.796;9.902;2023-01-29T23:42:35;20.60;;;11.93;;
9094;SDS011;4583;49.796;9.902;2023-01-29T23:52:37;17.13;;;10.77;;
